Time;durP1;ratioP1;P1;durP2;ratioP2;P2;SDS_P1;SDS_P2;PMS_P1;PMS_P2;Temp;Humidity;BMP_temperature;BMP_pressure;BME280_temperature;BME280_humidity;BME280_pressure;Samples;Min_cycle;Max_cycle;Signal;HPM_P1;HPM_P2
2022/10/04 00:01:28;;;;;;;0.10;0.10;;;;;;;10.76;100.00;102319.44;5044677;28;20036;-78
2022/10/04 00:04:04;;;;;;;0.00;0.00;;;;;;;10.65;100.00;102320.03;5012980;28;20285;-78
2022/10/04 00:06:30;;;;;;;0.10;0.10;;;;;;;10.48;100.00;102286.88;5027215;28;20033;-79
2022/10/04 00:08:59;;;;;;;0.10;0.10;;;;;;;10.63;100.00;102321.94;5028811;28;20029;-78
2022/10/04 00:11:28;;;;;;;0.10;0.10;;;;;;;10.59;100.00;102323.03;5030792;28;20021;-78
2022/10/04 00:13:56;;;;;;;0.10;0.10;;;;;;;10.56;100.00;102320.53;5015930;28;20025;-78
2022/10/04 00:16:48;;;;;;;0.10;0.10;;;;;;;10.52;100.00;102297.47;5034200;28;20028;-78
2022/10/04 00:19:13;;;;;;;0.10;0.10;;;;;;;10.64;100.00;102311.09;5019790;28;20493;-78
2022/10/04 00:21:55;;;;;;;0.10;0.10;;;;;;;10.67;100.00;102307.41;5027436;28;20124;-78
2022/10/04 00:24:22;;;;;;;0.10;0.10;;;;;;;10.47;100.00;102269.03;5035772;28;20025;-78
2022/10/04 00:26:47;;;;;;;0.10;0.10;;;;;;;10.72;100.00;102302.63;5035838;28;20028;-78
2022/10/04 00:29:31;;;;;;;0.00;0.00;;;;;;;10.66;100.00;102308.34;5031496;28;20028;-78
2022/10/04 00:32:11;;;;;;;0.10;0.10;;;;;;;10.59;100.00;102298.88;5033111;28;20338;-78
2022/10/04 00:34:52;;;;;;;0.10;0.10;;;;;;;10.29;100.00;102252.09;5038963;28;20086;-78
2022/10/04 00:37:19;;;;;;;0.10;0.10;;;;;;;10.49;100.00;102282.41;5030206;28;20032;-78
2022/10/04 00:40:23;;;;;;;0.00;0.00;;;;;;;10.57;100.00;102290.03;5020214;28;20034;-78
2022/10/04 00:43:03;;;;;;;0.10;0.10;;;;;;;10.58;100.00;102284.59;4963760;28;20056;-77
2022/10/04 00:45:40;;;;;;;0.10;0.10;;;;;;;10.42;100.00;102263.09;4976964;28;20288;-78
2022/10/04 00:48:29;;;;;;;0.00;0.00;;;;;;;10.49;100.00;102274.34;5020986;28;20029;-78
2022/10/04 00:51:03;;;;;;;0.00;0.00;;;;;;;10.41;100.00;102253.28;5015735;28;20040;-78
2022/10/04 00:53:48;;;;;;;;;;;;;;;10.48;100.00;102281.53;5052299;28;20042;-78
2022/10/04 00:56:21;;;;;;;0.10;0.10;;;;;;;10.32;100.00;102265.38;5024240;28;19927;-78
2022/10/04 00:59:05;;;;;;;0.10;0.10;;;;;;;10.32;100.00;102285.97;5016555;28;20083;-78
2022/10/04 01:01:34;;;;;;;0.10;0.10;;;;;;;10.05;100.00;102247.09;5016541;28;20470;-78
2022/10/04 01:04:00;;;;;;;0.30;0.10;;;;;;;9.92;100.00;102242.47;5037297;28;20375;-78
2022/10/04 01:06:26;;;;;;;0.10;0.10;;;;;;;10.11;100.00;102274.53;5036071;28;20029;-78
2022/10/04 01:08:53;;;;;;;0.10;0.10;;;;;;;10.08;100.00;102263.97;5027914;28;20033;-78
2022/10/04 01:11:28;;;;;;;0.10;0.10;;;;;;;10.06;100.00;102262.22;5034146;28;20029;-78
2022/10/04 01:13:58;;;;;;;0.00;0.00;;;;;;;10.01;100.00;102256.28;5032595;28;20025;-78
2022/10/04 01:16:25;;;;;;;0.00;0.00;;;;;;;10.02;100.00;102251.75;5029906;28;20486;-78
2022/10/04 01:18:50;;;;;;;0.13;0.10;;;;;;;9.96;100.00;102235.97;5019031;28;20272;-78
2022/10/04 01:21:22;;;;;;;0.13;0.13;;;;;;;10.15;100.00;102257.34;5016414;28;20029;-78
2022/10/04 01:23:52;;;;;;;0.10;0.10;;;;;;;10.20;100.00;102242.72;5031813;28;20676;-79
2022/10/04 01:26:31;;;;;;;0.10;0.10;;;;;;;10.32;100.00;102249.25;5053487;28;20079;-80
2022/10/04 01:29:01;;;;;;;0.10;0.10;;;;;;;10.36;100.00;102242.75;5032318;28;20028;-79
2022/10/04 01:31:28;;;;;;;0.10;0.10;;;;;;;10.33;100.00;102234.00;5037409;28;20032;-79
2022/10/04 01:33:54;;;;;;;0.10;0.10;;;;;;;10.34;100.00;102223.16;5036370;28;20036;-79
2022/10/04 01:36:19;;;;;;;0.10;0.10;;;;;;;10.38;100.00;102225.69;5031538;28;20360;-78
2022/10/04 01:38:45;;;;;;;0.10;0.10;;;;;;;10.36;100.00;102229.31;5031648;28;20055;-80
2022/10/04 01:41:12;;;;;;;0.10;0.10;;;;;;;10.17;100.00;102191.91;5032655;28;20103;-80
2022/10/04 01:43:40;;;;;;;0.10;0.10;;;;;;;10.22;100.00;102199.69;5033069;28;20024;-79
2022/10/04 01:46:12;;;;;;;0.10;0.10;;;;;;;10.25;100.00;102198.66;5035794;28;20482;-81
2022/10/04 01:48:41;;;;;;;0.10;0.10;;;;;;;10.29;100.00;102193.06;5031990;28;20451;-80
2022/10/04 01:51:17;;;;;;;0.10;0.10;;;;;;;10.50;100.00;102215.16;5032407;28;20467;-81
2022/10/04 01:53:49;;;;;;;0.10;0.10;;;;;;;10.45;100.00;102206.53;5034367;28;20028;-80
2022/10/04 01:56:18;;;;;;;0.20;0.20;;;;;;;10.64;100.00;102208.19;5032064;28;20922;-79
2022/10/04 01:58:53;;;;;;;0.10;0.10;;;;;;;10.74;100.00;102217.44;5024846;28;20027;-80
2022/10/04 02:01:27;;;;;;;0.10;0.10;;;;;;;10.54;100.00;102207.84;5039126;28;20025;-80
2022/10/04 02:03:55;;;;;;;;;;;;;;;10.50;100.00;102215.16;5016272;28;20025;-81
2022/10/04 02:06:21;;;;;;;0.15;0.15;;;;;;;10.26;100.00;102177.13;5034132;28;20369;-80
2022/10/04 02:08:49;;;;;;;0.10;0.10;;;;;;;10.41;100.00;102177.22;5029508;28;20583;-80
2022/10/04 02:11:20;;;;;;;0.10;0.10;;;;;;;10.35;100.00;102175.72;5039861;28;20079;-79
2022/10/04 02:13:47;;;;;;;0.10;0.10;;;;;;;10.30;100.00;102167.06;5033102;28;20052;-80
2022/10/04 02:16:13;;;;;;;0.20;0.20;;;;;;;10.10;100.00;102168.16;5016950;28;20025;-80
2022/10/04 02:18:39;;;;;;;0.17;0.17;;;;;;;10.13;100.00;102179.59;5036147;28;20087;-79
2022/10/04 02:21:06;;;;;;;0.10;0.10;;;;;;;9.81;100.00;102155.38;5031383;28;20037;-79
2022/10/04 02:23:32;;;;;;;0.10;0.10;;;;;;;9.77;100.00;102131.50;5033001;28;21659;-78
2022/10/04 02:25:57;;;;;;;0.10;0.10;;;;;;;9.80;100.00;102150.97;5036186;28;20032;-80
2022/10/04 02:28:23;;;;;;;0.10;0.10;;;;;;;9.76;100.00;102138.66;5034250;28;20075;-80
2022/10/04 02:33:42;;;;;;;0.10;0.10;;;;;;;9.65;100.00;102141.06;5029787;28;20043;-79
2022/10/04 02:36:09;;;;;;;0.10;0.10;;;;;;;9.77;100.00;102150.25;5023763;28;20087;-80
2022/10/04 02:38:38;;;;;;;0.10;0.10;;;;;;;9.86;100.00;102161.38;5020827;28;20052;-79
2022/10/04 02:41:16;;;;;;;0.10;0.10;;;;;;;9.71;100.00;102128.19;5033167;28;20112;-79
2022/10/04 02:43:50;;;;;;;0.10;0.10;;;;;;;9.97;100.00;102159.91;5035040;28;20028;-80
2022/10/04 02:46:22;;;;;;;0.10;0.10;;;;;;;9.80;100.00;102126.81;5038109;28;20032;-80
2022/10/04 02:48:50;;;;;;;0.10;0.10;;;;;;;9.78;100.00;102117.13;5034425;28;20048;-79
2022/10/04 02:51:17;;;;;;;0.13;0.10;;;;;;;9.88;100.00;102134.44;5036954;28;20066;-80
2022/10/04 02:54:02;;;;;;;0.10;0.10;;;;;;;9.58;100.00;102117.25;5021104;28;20411;-79
2022/10/04 02:56:27;;;;;;;0.10;0.10;;;;;;;9.38;100.00;102091.50;5030049;28;20029;-81
2022/10/04 02:58:54;;;;;;;0.10;0.10;;;;;;;9.48;100.00;102124.03;5034549;28;20633;-80
2022/10/04 03:01:51;;;;;;;0.20;0.20;;;;;;;9.55;100.00;102129.94;5019045;28;20037;-80
2022/10/04 03:04:19;;;;;;;0.20;0.10;;;;;;;9.58;100.00;102119.94;5022866;28;20041;-81
2022/10/04 03:06:45;;;;;;;0.10;0.10;;;;;;;9.40;100.00;102113.72;5031789;28;20482;-79
2022/10/04 03:09:11;;;;;;;0.10;0.10;;;;;;;9.19;100.00;102099.63;5031617;28;20036;-79
2022/10/04 03:11:39;;;;;;;0.10;0.10;;;;;;;9.04;100.00;102079.00;5016334;28;20030;-79
2022/10/04 03:14:09;;;;;;;0.10;0.10;;;;;;;9.22;100.00;102112.00;5034217;28;20626;-78
2022/10/04 03:16:39;;;;;;;0.10;0.10;;;;;;;9.05;100.00;102102.16;5012715;28;20559;-79
2022/10/04 03:19:05;;;;;;;0.10;0.10;;;;;;;8.87;100.00;102083.41;5031473;28;20108;-78
2022/10/04 03:21:32;;;;;;;0.10;0.10;;;;;;;9.12;100.00;102095.53;5028669;28;20259;-78
2022/10/04 03:23:59;;;;;;;0.10;0.10;;;;;;;8.98;100.00;102089.06;5027914;28;20112;-80
2022/10/04 03:26:32;;;;;;;0.13;0.13;;;;;;;9.00;100.00;102081.81;5029613;28;20720;-79
2022/10/04 03:28:58;;;;;;;0.10;0.10;;;;;;;9.10;100.00;102097.44;5032669;28;20033;-78
2022/10/04 03:31:27;;;;;;;0.10;0.10;;;;;;;9.00;100.00;102097.03;5018073;28;20052;-78
2022/10/04 03:33:56;;;;;;;0.10;0.10;;;;;;;9.06;100.00;102106.56;5029513;28;20044;-79
2022/10/04 03:36:23;;;;;;;0.20;0.20;;;;;;;9.11;100.00;102107.22;5031832;28;20053;-78
2022/10/04 03:38:52;;;;;;;0.10;0.10;;;;;;;8.93;100.00;102076.88;5037820;28;20128;-82
2022/10/04 03:41:18;;;;;;;0.20;0.20;;;;;;;8.90;100.00;102085.06;5014183;28;20024;-79
2022/10/04 03:43:45;;;;;;;0.10;0.10;;;;;;;8.98;100.00;102085.53;5018218;28;20082;-76
2022/10/04 03:46:11;;;;;;;0.20;0.20;;;;;;;8.91;100.00;102081.44;5036556;28;20792;-75
2022/10/04 03:48:45;;;;;;;0.10;0.10;;;;;;;8.98;100.00;102093.56;5029195;28;20124;-79
2022/10/04 03:51:17;;;;;;;0.10;0.10;;;;;;;8.95;100.00;102091.91;5033382;28;20032;-78
2022/10/04 03:53:45;;;;;;;0.03;0.03;;;;;;;8.94;100.00;102098.19;5033464;28;20044;-78
2022/10/04 03:56:37;;;;;;;0.10;0.10;;;;;;;8.88;100.00;102089.63;5039206;28;20025;-76
2022/10/04 03:59:04;;;;;;;0.10;0.10;;;;;;;8.83;100.00;102081.81;5020031;28;20064;-78
2022/10/04 04:01:39;;;;;;;0.20;0.20;;;;;;;8.79;100.00;102086.44;5045882;28;20036;-80
2022/10/04 04:04:34;;;;;;;0.10;0.10;;;;;;;8.83;100.00;102077.31;5022256;28;20040;-78
2022/10/04 04:07:04;;;;;;;;;;;;;;;8.79;100.00;102061.50;5033071;28;20147;-76
2022/10/04 04:09:39;;;;;;;0.10;0.10;;;;;;;8.77;100.00;102037.47;5033840;28;20007;-76
2022/10/04 04:12:10;;;;;;;0.10;0.10;;;;;;;8.95;100.00;102058.91;5019822;28;20056;-77
2022/10/04 04:14:37;;;;;;;0.10;0.10;;;;;;;8.78;100.00;102057.94;5033825;28;20028;-75
2022/10/04 04:17:25;;;;;;;0.20;0.10;;;;;;;8.54;100.00;102015.41;5036536;28;20396;-77
2022/10/04 04:19:52;;;;;;;0.10;0.10;;;;;;;8.71;100.00;102045.81;5028890;28;20034;-79
2022/10/04 04:22:18;;;;;;;0.10;0.10;;;;;;;8.66;100.00;102032.66;5043540;28;20025;-78
2022/10/04 04:24:44;;;;;;;0.10;0.10;;;;;;;8.69;100.00;102047.72;5033735;28;20610;-78
2022/10/04 04:27:10;;;;;;;0.10;0.10;;;;;;;8.73;100.00;102061.81;5031980;28;20034;-79
2022/10/04 04:29:44;;;;;;;0.17;0.17;;;;;;;8.91;100.00;102063.53;5032104;28;20032;-77
2022/10/04 04:32:23;;;;;;;0.17;0.17;;;;;;;8.79;100.00;102078.41;5031233;28;20111;-78
2022/10/04 04:35:05;;;;;;;0.10;0.10;;;;;;;8.66;100.00;102074.63;5023287;28;20059;-78
2022/10/04 04:37:31;;;;;;;0.13;0.13;;;;;;;8.40;100.00;102069.59;5034114;28;20057;-76
2022/10/04 04:40:10;;;;;;;0.10;0.10;;;;;;;8.30;100.00;102060.28;5022368;28;20029;-76
2022/10/04 04:42:36;;;;;;;0.10;0.10;;;;;;;8.34;100.00;102067.19;5038431;28;20637;-76
2022/10/04 04:45:06;;;;;;;0.10;0.10;;;;;;;8.35;100.00;102062.72;5032376;28;20192;-76
2022/10/04 04:47:37;;;;;;;0.10;0.10;;;;;;;8.44;100.00;102056.94;5039697;28;20048;-78
2022/10/04 04:50:12;;;;;;;0.10;0.10;;;;;;;8.35;100.00;102057.38;5052052;28;20029;-80
2022/10/04 04:52:37;;;;;;;0.10;0.10;;;;;;;8.39;100.00;102062.50;5051913;28;20032;-77
2022/10/04 04:55:03;;;;;;;0.10;0.10;;;;;;;8.19;100.00;102049.22;5032391;28;20029;-74
2022/10/04 04:57:29;;;;;;;0.10;0.10;;;;;;;8.42;100.00;102053.47;5034768;28;20070;-75
2022/10/04 04:59:57;;;;;;;0.10;0.10;;;;;;;8.39;100.00;102054.47;5033998;28;20062;-78
2022/10/04 05:02:33;;;;;;;0.10;0.10;;;;;;;8.13;100.00;102015.63;5036816;28;20041;-74
2022/10/04 05:05:21;;;;;;;0.17;0.17;;;;;;;8.23;100.00;102042.78;5035015;28;20033;-75
2022/10/04 05:07:47;;;;;;;0.13;0.13;;;;;;;8.19;100.00;102036.72;5036561;28;20036;-74
2022/10/04 05:10:30;;;;;;;0.17;0.17;;;;;;;8.32;100.00;102052.16;5052743;28;20107;-75
2022/10/04 05:12:58;;;;;;;0.10;0.10;;;;;;;8.15;100.00;102050.31;5039874;28;20032;-76
2022/10/04 05:15:24;;;;;;;0.10;0.10;;;;;;;8.20;100.00;102049.16;5052721;28;20490;-75
2022/10/04 05:17:50;;;;;;;0.10;0.10;;;;;;;7.96;100.00;102003.06;5035490;28;20068;-77
2022/10/04 05:20:15;;;;;;;0.10;0.10;;;;;;;8.09;100.00;102046.13;5039189;28;20132;-76
2022/10/04 05:22:45;;;;;;;0.10;0.10;;;;;;;7.90;100.00;102025.63;5037105;28;20674;-75
2022/10/04 05:25:28;;;;;;;0.20;0.20;;;;;;;7.92;100.00;102050.50;5036147;28;20033;-76
2022/10/04 05:27:54;;;;;;;0.20;0.20;;;;;;;7.95;100.00;102041.44;5051858;28;20032;-75
2022/10/04 05:30:47;;;;;;;0.10;0.10;;;;;;;7.85;100.00;102049.03;5034743;28;20166;-74
2022/10/04 05:33:22;;;;;;;0.10;0.10;;;;;;;7.83;100.00;102056.25;5036373;28;20032;-77
2022/10/04 05:36:08;;;;;;;0.10;0.10;;;;;;;7.90;100.00;102060.38;5034543;28;20049;-78
2022/10/04 05:38:49;;;;;;;0.10;0.10;;;;;;;7.91;100.00;102070.16;5035514;28;20036;-77
2022/10/04 05:41:35;;;;;;;0.10;0.10;;;;;;;7.87;100.00;102065.00;5037229;28;20034;-79
2022/10/04 05:44:03;;;;;;;0.10;0.10;;;;;;;7.87;100.00;102052.50;5036429;28;20029;-77
2022/10/04 05:46:30;;;;;;;0.20;0.20;;;;;;;7.92;100.00;102069.22;5038230;28;20520;-79
2022/10/04 05:49:04;;;;;;;0.10;0.10;;;;;;;7.78;100.00;102037.78;5031993;28;20028;-79
2022/10/04 05:51:36;;;;;;;0.10;0.10;;;;;;;7.74;100.00;102057.56;5035564;28;20463;-76
2022/10/04 05:54:02;;;;;;;0.10;0.10;;;;;;;7.68;100.00;102062.34;5036996;28;20041;-77
2022/10/04 05:56:45;;;;;;;0.10;0.10;;;;;;;7.50;100.00;102039.06;5029514;28;20039;-76
2022/10/04 05:59:38;;;;;;;0.10;0.10;;;;;;;7.50;100.00;102054.19;5035217;28;20054;-75
2022/10/04 06:02:30;;;;;;;0.20;0.20;;;;;;;7.48;100.00;102051.63;5029774;28;20033;-78
2022/10/04 06:05:14;;;;;;;0.10;0.10;;;;;;;7.62;100.00;102052.78;5022270;28;20041;-79
2022/10/04 06:07:45;;;;;;;0.10;0.10;;;;;;;7.73;100.00;102058.50;5039138;28;20091;-79
2022/10/04 06:10:41;;;;;;;0.10;0.10;;;;;;;7.80;100.00;102062.63;5039437;28;20224;-78
2022/10/04 06:13:28;;;;;;;0.10;0.10;;;;;;;7.77;100.00;102048.53;5040047;28;20025;-77
2022/10/04 06:16:14;;;;;;;0.10;0.10;;;;;;;7.85;100.00;102051.72;5038592;28;20037;-75
2022/10/04 06:19:08;;;;;;;0.10;0.10;;;;;;;7.90;100.00;102060.38;5034099;28;20460;-77
2022/10/04 06:22:13;;;;;;;0.10;0.10;;;;;;;7.93;100.00;102062.94;5031328;28;20484;-78
2022/10/04 06:24:40;;;;;;;0.15;0.15;;;;;;;8.07;100.00;102067.63;5028660;28;20068;-76
2022/10/04 06:27:18;;;;;;;0.20;0.20;;;;;;;8.03;100.00;102051.78;5013139;28;20043;-77
2022/10/04 06:30:02;;;;;;;0.15;0.15;;;;;;;8.00;100.00;102046.56;5028255;28;20025;-75
2022/10/04 06:32:52;;;;;;;0.10;0.10;;;;;;;8.19;100.00;102067.97;5035288;28;20091;-82
2022/10/04 06:35:50;;;;;;;0.20;0.20;;;;;;;8.17;100.00;102072.50;5035248;28;20032;-77
2022/10/04 06:38:32;;;;;;;0.20;0.20;;;;;;;8.07;100.00;102042.66;5027244;28;20131;-76
2022/10/04 06:41:08;;;;;;;0.10;0.10;;;;;;;8.24;100.00;102052.56;5029931;28;20033;-75
2022/10/04 06:43:47;;;;;;;0.10;0.10;;;;;;;8.10;100.00;102021.13;5043983;28;20040;-75
2022/10/04 06:46:36;;;;;;;0.10;0.10;;;;;;;8.41;100.00;102052.59;5028570;28;20128;-74
2022/10/04 06:49:25;;;;;;;0.10;0.10;;;;;;;8.57;100.00;102057.22;5029144;28;20402;-76
2022/10/04 06:51:59;;;;;;;0.10;0.10;;;;;;;8.69;100.00;102058.41;5033418;28;20028;-79
2022/10/04 06:54:46;;;;;;;0.20;0.20;;;;;;;8.75;100.00;102054.56;5029587;28;20033;-76
2022/10/04 06:57:50;;;;;;;0.20;0.20;;;;;;;8.87;100.00;102053.06;5033045;28;20036;-75
2022/10/04 07:00:18;;;;;;;0.20;0.20;;;;;;;8.94;100.00;102051.81;5032972;28;20401;-75
2022/10/04 07:03:11;;;;;;;0.10;0.10;;;;;;;9.05;100.00;102056.59;5041078;28;20024;-75
2022/10/04 07:05:51;;;;;;;0.10;0.10;;;;;;;9.11;100.00;102053.63;5044376;28;20122;-76
2022/10/04 07:08:30;;;;;;;0.10;0.10;;;;;;;9.22;100.00;102064.63;5045345;28;20017;-76
2022/10/04 07:11:12;;;;;;;0.10;0.10;;;;;;;9.42;100.00;102062.69;5032765;28;20029;-75
2022/10/04 07:13:58;;;;;;;0.15;0.15;;;;;;;9.20;100.00;102026.31;5037360;28;20033;-75
2022/10/04 07:16:33;;;;;;;0.10;0.10;;;;;;;9.39;100.00;102044.13;5037284;28;20029;-75
2022/10/04 07:19:19;;;;;;;0.20;0.20;;;;;;;9.52;100.00;102068.47;5039004;28;20055;-76
2022/10/04 07:22:06;;;;;;;0.10;0.10;;;;;;;9.54;100.00;102066.53;5036439;28;20032;-77
2022/10/04 07:24:43;;;;;;;0.13;0.10;;;;;;;9.46;100.00;102029.41;5032516;28;20066;-75
2022/10/04 07:27:13;;;;;;;0.10;0.10;;;;;;;9.52;100.00;102037.13;5035716;28;20025;-75
2022/10/04 07:29:41;;;;;;;0.20;0.20;;;;;;;9.67;100.00;102031.88;5036508;28;20033;-76
2022/10/04 07:32:20;;;;;;;0.10;0.10;;;;;;;9.82;100.00;102048.94;5029595;28;20097;-75
2022/10/04 07:35:00;;;;;;;0.10;0.10;;;;;;;9.98;100.00;102051.63;5040946;28;20556;-76
2022/10/04 07:37:27;;;;;;;0.10;0.10;;;;;;;10.02;100.00;102045.16;5034489;28;20036;-73
2022/10/04 07:40:16;;;;;;;0.10;0.10;;;;;;;9.92;100.00;102019.81;5021033;28;20031;-77
2022/10/04 07:42:51;;;;;;;0.10;0.10;;;;;;;10.16;100.00;102045.25;5036851;28;20108;-74
2022/10/04 07:45:20;;;;;;;0.10;0.10;;;;;;;10.36;100.00;102051.28;5037624;28;20424;-70
2022/10/04 07:47:46;;;;;;;0.10;0.10;;;;;;;10.53;100.00;102058.41;5035686;28;20041;-82
2022/10/04 07:50:50;;;;;;;0.10;0.10;;;;;;;10.55;100.00;102058.28;5025287;28;20053;-75
2022/10/04 07:53:17;;;;;;;0.10;0.10;;;;;;;10.59;100.00;102052.69;5041198;28;20482;-74
2022/10/04 07:56:21;;;;;;;0.20;0.20;;;;;;;10.54;100.00;102056.56;5044847;28;20032;-77
2022/10/04 07:58:54;;;;;;;0.10;0.10;;;;;;;10.36;100.00;102019.06;5045382;28;20048;-74
2022/10/04 08:01:37;;;;;;;0.10;0.10;;;;;;;10.55;100.00;102015.31;5041331;28;21224;-74
2022/10/04 08:04:13;;;;;;;0.10;0.10;;;;;;;10.80;100.00;102049.66;5041465;28;20028;-71
2022/10/04 08:06:52;;;;;;;0.10;0.10;;;;;;;11.14;100.00;102052.13;5039551;28;20868;-70
2022/10/04 08:09:38;;;;;;;0.10;0.10;;;;;;;11.23;100.00;102054.28;5043824;28;20036;-71
2022/10/04 08:12:20;;;;;;;0.10;0.10;;;;;;;11.24;100.00;102026.44;5044188;28;20655;-76
2022/10/04 08:15:08;;;;;;;0.00;0.00;;;;;;;11.42;100.00;102045.91;5041450;28;20447;-70
2022/10/04 08:17:42;;;;;;;0.10;0.10;;;;;;;11.67;100.00;102053.31;5046478;28;20078;-73
2022/10/04 08:20:20;;;;;;;0.10;0.10;;;;;;;11.73;100.00;102035.91;5040857;28;20048;-72
2022/10/04 08:23:25;;;;;;;0.10;0.10;;;;;;;11.88;100.00;102047.53;5043428;28;20449;-72
2022/10/04 08:26:09;;;;;;;;;;;;;;;12.07;100.00;102052.63;5042047;28;20565;-72
2022/10/04 08:31:58;;;;;;;0.03;0.03;;;;;;;12.40;100.00;102048.69;5036238;28;20044;-72
2022/10/04 08:34:37;;;;;;;0.10;0.10;;;;;;;12.37;100.00;102035.44;5040271;28;20063;-70
2022/10/04 08:37:14;;;;;;;0.10;0.10;;;;;;;12.56;100.00;102053.03;5036626;28;20264;-73
2022/10/04 08:39:45;;;;;;;0.00;0.00;;;;;;;12.63;100.00;102048.97;5040276;28;20463;-72
2022/10/04 08:42:26;;;;;;;0.10;0.10;;;;;;;12.68;100.00;102049.53;5027150;28;20037;-73
2022/10/04 08:45:06;;;;;;;0.00;0.00;;;;;;;12.74;100.00;102043.72;5042202;28;20099;-76
2022/10/04 08:47:57;;;;;;;0.10;0.10;;;;;;;13.00;99.52;102051.84;5039747;28;20443;-72
2022/10/04 08:50:39;;;;;;;0.10;0.10;;;;;;;13.02;100.00;102022.94;5040732;28;20119;-73
2022/10/04 08:53:15;;;;;;;0.10;0.10;;;;;;;13.33;98.58;102058.56;5038457;28;20379;-74
2022/10/04 08:56:12;;;;;;;0.10;0.10;;;;;;;13.37;96.54;102063.75;5034982;28;20602;-73
2022/10/04 08:59:15;;;;;;;0.10;0.10;;;;;;;13.37;95.05;102063.75;5045282;28;20029;-74
2022/10/04 09:02:15;;;;;;;0.10;0.10;;;;;;;13.62;95.60;102046.72;5040182;28;20120;-76
2022/10/04 09:05:13;;;;;;;0.10;0.10;;;;;;;13.65;92.66;102052.75;5035452;28;20036;-75
2022/10/04 09:08:06;;;;;;;0.10;0.10;;;;;;;13.85;94.69;102038.78;5034966;28;20422;-76
2022/10/04 09:10:44;;;;;;;0.00;0.00;;;;;;;13.90;95.37;102044.72;5035526;28;20475;-72
2022/10/04 09:13:15;;;;;;;0.10;0.10;;;;;;;14.04;90.72;102049.97;5033642;28;20032;-71
2022/10/04 09:15:43;;;;;;;0.00;0.00;;;;;;;13.90;89.59;102050.97;5035449;28;20033;-72
2022/10/04 09:18:11;;;;;;;0.10;0.10;;;;;;;14.08;90.25;102050.59;5039805;28;20123;-73
2022/10/04 09:20:57;;;;;;;0.00;0.00;;;;;;;14.13;90.91;102055.66;5039526;28;20026;-73
2022/10/04 09:23:42;;;;;;;0.05;0.05;;;;;;;14.13;89.45;102047.56;5032124;28;20485;-75
2022/10/04 09:26:23;;;;;;;0.10;0.10;;;;;;;14.51;91.69;102041.13;5039582;28;20047;-73
2022/10/04 09:29:26;;;;;;;0.10;0.10;;;;;;;14.36;89.72;102035.91;5044392;28;20033;-71
2022/10/04 09:32:06;;;;;;;0.10;0.10;;;;;;;14.62;89.10;102040.31;5037590;28;20047;-71
2022/10/04 09:34:50;;;;;;;0.10;0.10;;;;;;;14.69;88.71;102037.06;5034451;28;20053;-74
2022/10/04 09:37:35;;;;;;;0.03;0.03;;;;;;;14.63;88.42;102024.00;5035608;28;20068;-74
2022/10/04 09:40:25;;;;;;;0.10;0.10;;;;;;;14.78;86.55;102040.91;5044006;28;20078;-72
2022/10/04 09:43:16;;;;;;;0.00;0.00;;;;;;;14.82;85.23;102036.13;5037586;28;20033;-70
2022/10/04 09:46:00;;;;;;;0.10;0.10;;;;;;;14.97;85.34;102026.81;5027326;28;20214;-74
2022/10/04 09:49:03;;;;;;;0.05;0.05;;;;;;;14.83;84.75;102013.50;5036928;28;20027;-76
2022/10/04 09:51:55;;;;;;;0.10;0.10;;;;;;;15.35;83.73;102026.63;5032931;28;20759;-72
2022/10/04 09:54:53;;;;;;;0.10;0.10;;;;;;;15.38;81.58;102027.22;5038928;28;20115;-75
2022/10/04 09:57:30;;;;;;;0.10;0.10;;;;;;;15.62;82.60;102034.41;5034716;28;20030;-74
2022/10/04 10:00:07;;;;;;;0.10;0.10;;;;;;;15.43;82.45;102003.38;5031045;28;20053;-75
2022/10/04 10:03:14;;;;;;;0.10;0.10;;;;;;;15.86;80.33;102017.19;5036013;28;20040;-73
2022/10/04 10:06:12;;;;;;;0.05;0.05;;;;;;;16.31;81.88;102029.72;5040984;28;20624;-70
2022/10/04 10:08:59;;;;;;;0.08;0.08;;;;;;;16.81;78.31;102026.44;5040247;28;20037;-72
2022/10/04 10:15:06;;;;;;;0.10;0.10;;;;;;;16.66;75.14;102019.63;5039517;28;20037;-72
2022/10/04 10:17:50;;;;;;;0.10;0.10;;;;;;;16.33;78.18;102015.06;5031580;28;20322;-75
2022/10/04 10:20:38;;;;;;;0.10;0.10;;;;;;;16.44;77.59;102008.75;5036673;28;20831;-77
2022/10/04 10:23:33;;;;;;;0.00;0.00;;;;;;;16.18;77.72;102000.09;5032533;28;20033;-74
2022/10/04 10:26:08;;;;;;;0.00;0.00;;;;;;;16.25;78.20;102008.56;5035350;28;20439;-78
2022/10/04 10:28:44;;;;;;;0.00;0.00;;;;;;;16.16;78.75;102007.47;5040463;28;20480;-77
2022/10/04 10:31:40;;;;;;;0.10;0.10;;;;;;;16.55;76.98;102002.41;5039120;28;20033;-76
2022/10/04 10:34:24;;;;;;;0.10;0.10;;;;;;;16.65;80.07;101994.34;5034916;28;20029;-80
2022/10/04 10:37:12;;;;;;;0.00;0.00;;;;;;;16.63;77.10;101999.91;5044655;28;20108;-73
2022/10/04 10:39:56;;;;;;;0.00;0.00;;;;;;;17.12;73.29;102003.94;5037686;28;20059;-70
2022/10/04 10:42:51;;;;;;;0.10;0.10;;;;;;;16.66;72.63;102006.91;5043376;28;20021;-75
2022/10/04 10:45:19;;;;;;;0.00;0.00;;;;;;;17.29;73.89;102016.91;5052582;28;20121;-78
2022/10/04 10:47:58;;;;;;;0.10;0.10;;;;;;;17.28;70.06;102003.47;5028426;28;20033;-78
2022/10/04 10:50:26;;;;;;;0.00;0.00;;;;;;;17.42;70.31;102016.69;5033749;28;20025;-71
2022/10/04 10:53:07;;;;;;;0.10;0.10;;;;;;;17.77;68.81;102017.25;5024101;28;20425;-72
2022/10/04 10:55:55;;;;;;;0.10;0.10;;;;;;;18.25;72.63;102027.38;5038630;28;20029;-69
2022/10/04 10:58:59;;;;;;;0.10;0.10;;;;;;;19.33;65.97;102021.84;5034974;28;20378;-71
2022/10/04 11:02:04;;;;;;;0.10;0.10;;;;;;;18.91;65.08;102024.94;5035841;28;20464;-76
2022/10/04 11:04:44;;;;;;;;;;;;;;;18.35;68.40;102024.66;5038007;28;20192;-75
2022/10/04 11:07:20;;;;;;;0.15;0.15;;;;;;;18.57;66.75;102018.09;5041384;28;19982;-77
2022/10/04 11:10:13;;;;;;;0.03;0.03;;;;;;;18.19;68.06;101978.16;5043974;28;20048;-80
2022/10/04 11:13:11;;;;;;;0.10;0.10;;;;;;;18.43;64.35;101980.44;5023444;28;20325;-74
2022/10/04 11:15:56;;;;;;;0.08;0.08;;;;;;;18.46;65.79;101993.75;5041391;28;20530;-76
2022/10/04 11:18:44;;;;;;;0.00;0.00;;;;;;;18.41;65.73;101961.56;5022585;28;20037;-69
2022/10/04 11:21:24;;;;;;;0.00;0.00;;;;;;;19.39;62.52;101992.28;5035447;28;20681;-72
2022/10/04 11:24:12;;;;;;;0.10;0.10;;;;;;;19.00;60.89;101950.63;5041503;28;20021;-74
2022/10/04 11:26:54;;;;;;;0.10;0.10;;;;;;;19.18;62.84;101974.31;5020199;28;20033;-74
2022/10/04 11:29:35;;;;;;;0.10;0.10;;;;;;;19.39;61.89;101974.09;5037866;28;20047;-71
2022/10/04 11:32:00;;;;;;;0.10;0.10;;;;;;;19.89;59.53;101961.94;5020910;28;20029;-70
2022/10/04 11:35:02;;;;;;;0.10;0.10;;;;;;;20.29;58.00;101964.38;5038917;28;20943;-74
2022/10/04 11:38:01;;;;;;;0.10;0.10;;;;;;;20.17;57.56;101953.69;5035076;28;20029;-75
2022/10/04 11:40:35;;;;;;;0.10;0.10;;;;;;;20.17;56.50;101963.75;5033817;28;20028;-72
2022/10/04 11:43:39;;;;;;;0.00;0.00;;;;;;;19.75;58.81;101954.28;5039223;28;20033;-73
2022/10/04 11:46:11;;;;;;;0.10;0.10;;;;;;;20.03;56.36;101930.56;5031551;28;20360;-71
2022/10/04 11:48:36;;;;;;;0.03;0.03;;;;;;;20.30;57.36;101944.28;5032024;28;20420;-75
2022/10/04 11:51:24;;;;;;;0.00;0.00;;;;;;;20.26;56.27;101941.00;5033291;28;20074;-75
2022/10/04 11:54:23;;;;;;;0.10;0.10;;;;;;;20.70;55.20;101939.31;5056262;28;20032;-69
2022/10/04 11:57:27;;;;;;;0.00;0.00;;;;;;;20.87;52.43;101937.56;5037495;28;20028;-71
2022/10/04 12:00:01;;;;;;;0.10;0.10;;;;;;;21.10;51.59;101932.41;5039501;28;20036;-72
2022/10/04 12:02:46;;;;;;;0.00;0.00;;;;;;;20.39;51.95;101940.63;5036811;28;20044;-75
2022/10/04 12:05:26;;;;;;;0.00;0.00;;;;;;;20.15;54.04;101938.53;5037754;28;20119;-72
2022/10/04 12:08:21;;;;;;;0.00;0.00;;;;;;;20.06;51.76;101930.25;5037691;28;20028;-69
2022/10/04 12:11:17;;;;;;;0.00;0.00;;;;;;;19.61;54.64;101931.13;5016808;28;20112;-70
2022/10/04 12:14:07;;;;;;;0.00;0.00;;;;;;;18.93;55.04;101918.69;5019044;28;20082;-72
2022/10/04 12:16:42;;;;;;;0.00;0.00;;;;;;;19.32;52.60;101918.53;5038322;28;20498;-70
2022/10/04 12:19:38;;;;;;;0.10;0.10;;;;;;;18.70;56.86;101938.03;5038499;28;20028;-71
2022/10/04 12:22:34;;;;;;;0.10;0.10;;;;;;;19.25;54.87;101917.41;5042805;28;20127;-70
2022/10/04 12:25:08;;;;;;;0.00;0.00;;;;;;;20.12;54.16;101930.66;5042922;28;20028;-68